KVLD/VLD METAR and TAF weather

Enter ICAO airport designator
Station Type Date Time Source
KVLD METAR 2022/08/16 19:53 UTC NOAA

KVLD 161953Z AUTO 00000KT 10SM FEW060 26/22 A2990 RMK AO2 LTG DSNT N-SE TSB1855E16 SLP130 T02610222


Station Type Date Time Source
KVLD Decoded METAR 2022/08/16 19:53 UTC NOAA

VALDOSTA REGIONAL AIRPORT, GA, United States (KVLD) 30-47N 083-16W
Aug 16, 2022 - 03:53 PM EDT / 2022.08.16 1953 UTC
Wind: Calm:0
Visibility: 10 mile(s):0
Sky conditions: mostly clear
Weather: Lightning observed
Temperature: 79.0 F (26.1 C)
Dew Point: 72.0 F (22.2 C)
Relative Humidity: 79%
Pressure (altimeter): 29.9 in. Hg (1012 hPa)
ob: KVLD 161953Z AUTO 00000KT 10SM FEW060 26/22 A2990 RMK AO2 LTG DSNT N-SE TSB1855E16 SLP130 T02610222
cycle: 20

Station Type Date Time Source
KVLD TAF 2022/08/16 18:42 UTC NOAA

TAF KVLD 161740Z 1618/1718 27004KT P6SM VCTS SCT030CB BKN045
TEMPO 1618/1620 3SM TSRA BKN030CB BKN045
FM162100 VRB03KT P6SM SCT045
FM170300 00000KT P6SM SKC
FM171500 27003KT P6SM SCT035 BKN050

Example: see airport list